createdAt,value
2019-02-26T00:01:34.931Z,2.39
2019-02-26T00:04:04.732Z,2.51
2019-02-26T00:06:34.483Z,2.51
2019-02-26T00:09:06.848Z,2.50
2019-02-26T00:11:38.419Z,2.54
2019-02-26T00:14:08.118Z,2.60
2019-02-26T00:16:39.963Z,2.67
2019-02-26T00:19:09.831Z,2.65
2019-02-26T00:21:40.885Z,2.62
2019-02-26T00:24:12.816Z,2.63
2019-02-26T00:26:43.491Z,2.61
2019-02-26T00:29:13.580Z,2.61
2019-02-26T00:31:46.048Z,2.55
2019-02-26T00:34:16.877Z,2.48
2019-02-26T00:36:46.564Z,2.50
2019-02-26T00:39:16.278Z,2.49
2019-02-26T00:41:49.320Z,2.39
2019-02-26T00:44:18.614Z,2.43
2019-02-26T00:46:48.887Z,2.38
2019-02-26T00:49:19.110Z,2.36
2019-02-26T00:51:52.401Z,2.35
2019-02-26T00:54:24.306Z,2.33
2019-02-26T00:56:53.034Z,2.25
2019-02-26T00:59:22.765Z,2.12
2019-02-26T01:01:54.490Z,2.13
2019-02-26T01:04:24.510Z,2.04
2019-02-26T01:06:54.217Z,1.94
2019-02-26T01:09:25.179Z,1.94
2019-02-26T01:11:55.448Z,1.90
2019-02-26T01:14:25.234Z,1.80
2019-02-26T01:16:54.997Z,1.78
2019-02-26T01:19:24.716Z,1.65
2019-02-26T01:21:54.426Z,1.65
2019-02-26T01:24:25.857Z,1.46
2019-02-26T01:26:55.572Z,1.39
2019-02-26T01:29:27.632Z,1.35
2019-02-26T01:31:56.777Z,1.34
2019-02-26T01:34:26.503Z,1.30
2019-02-26T01:36:56.228Z,1.09
2019-02-26T01:39:26.043Z,0.99
2019-02-26T01:41:56.258Z,0.97
2019-02-26T01:44:30.182Z,1.09
2019-02-26T01:47:00.878Z,1.10
2019-02-26T01:49:30.176Z,1.23
2019-02-26T01:52:00.009Z,1.26
2019-02-26T01:54:30.525Z,1.35
2019-02-26T01:57:01.177Z,1.49
2019-02-26T01:59:31.710Z,1.67
2019-02-26T02:02:02.302Z,1.80
2019-02-26T02:04:34.110Z,1.76
2019-02-26T02:07:05.833Z,1.75
2019-02-26T02:09:35.109Z,1.80
2019-02-26T02:12:07.126Z,1.80
2019-02-26T02:14:36.306Z,1.75
2019-02-26T02:17:08.350Z,1.69
2019-02-26T02:19:37.694Z,1.65
2019-02-26T02:22:07.474Z,1.71
2019-02-26T02:24:39.234Z,1.66
2019-02-26T02:27:08.856Z,1.60
2019-02-26T02:29:41.832Z,1.65
2019-02-26T02:32:10.253Z,1.60
2019-02-26T02:34:42.886Z,1.62
2019-02-26T02:37:11.483Z,1.66
2019-02-26T02:39:41.200Z,1.69
2019-02-26T02:42:13.323Z,1.66
2019-02-26T02:44:44.849Z,1.73
2019-02-26T02:47:13.784Z,1.78
2019-02-26T02:49:44.370Z,1.77
2019-02-26T02:52:14.260Z,1.79
2019-02-26T02:54:47.019Z,1.87
2019-02-26T02:57:15.496Z,1.81
2019-02-26T02:59:45.354Z,1.89
2019-02-26T03:02:17.396Z,1.97
2019-02-26T03:04:46.530Z,2.06
2019-02-26T03:07:17.814Z,2.18
2019-02-26T03:09:47.744Z,2.20
2019-02-26T03:12:17.651Z,2.21
2019-02-26T03:14:47.638Z,2.28
2019-02-26T03:17:20.134Z,2.26
2019-02-26T03:19:49.006Z,2.24
2019-02-26T03:22:21.589Z,2.23
2019-02-26T03:24:53.805Z,2.38
2019-02-26T03:27:23.496Z,2.46
2019-02-26T03:29:56.230Z,2.46
2019-02-26T03:32:25.499Z,2.41
2019-02-26T03:34:55.398Z,2.39
2019-02-26T03:37:25.914Z,2.43
2019-02-26T03:39:58.069Z,2.48
2019-02-26T03:42:28.577Z,2.53
2019-02-26T03:44:59.619Z,2.54
2019-02-26T03:47:30.868Z,2.54
2019-02-26T03:50:00.578Z,2.58
2019-02-26T03:52:32.128Z,2.59
2019-02-26T03:55:03.331Z,2.59
2019-02-26T03:57:33.741Z,2.53
2019-02-26T04:00:08.185Z,2.56
2019-02-26T04:02:37.514Z,2.61
2019-02-26T04:05:10.736Z,2.60
2019-02-26T04:07:40.512Z,2.56
2019-02-26T04:10:13.794Z,2.53
2019-02-26T04:12:45.049Z,2.57
2019-02-26T04:15:24.316Z,2.59
2019-02-26T04:17:52.711Z,2.64
2019-02-26T04:20:22.450Z,2.67
2019-02-26T04:22:53.308Z,2.67
2019-02-26T04:25:44.891Z,2.62
2019-02-26T04:28:33.016Z,2.55
2019-02-26T04:31:10.248Z,2.48
2019-02-26T04:34:08.532Z,2.44
2019-02-26T04:37:04.776Z,2.62
2019-02-26T04:39:44.962Z,2.42
2019-02-26T04:42:38.394Z,2.37
2019-02-26T04:45:14.201Z,2.57
2019-02-26T04:47:56.981Z,2.61
2019-02-26T04:50:28.699Z,2.64
2019-02-26T04:52:59.115Z,2.77
2019-02-26T04:55:29.724Z,2.78
2019-02-26T04:57:58.812Z,2.69
2019-02-26T05:00:30.390Z,2.60
2019-02-26T05:02:59.985Z,2.49
2019-02-26T05:05:32.020Z,2.51
2019-02-26T05:08:04.055Z,2.41
2019-02-26T05:10:34.334Z,2.34
2019-02-26T05:13:07.380Z,2.12
2019-02-26T05:15:35.686Z,2.10
2019-02-26T05:18:05.477Z,2.12
2019-02-26T05:20:36.794Z,2.05
2019-02-26T05:23:06.752Z,1.79
2019-02-26T05:25:39.238Z,1.84
2019-02-26T05:28:10.070Z,1.83
2019-02-26T05:30:40.435Z,1.78
2019-02-26T05:33:11.100Z,1.62
2019-02-26T05:35:43.555Z,1.64
2019-02-26T05:38:12.255Z,1.67
2019-02-26T05:40:42.851Z,1.59
2019-02-26T05:43:13.599Z,1.79
2019-02-26T05:45:43.301Z,1.60
2019-02-26T05:48:15.340Z,1.56
2019-02-26T05:50:44.800Z,1.49
2019-02-26T05:53:14.552Z,1.34
2019-02-26T05:55:47.559Z,1.21
2019-02-26T05:58:18.666Z,1.16
2019-02-26T06:00:47.016Z,1.16
2019-02-26T06:03:18.604Z,0.94
2019-02-26T06:05:48.948Z,0.82
2019-02-26T06:08:19.359Z,0.90
2019-02-26T06:10:49.006Z,0.76
2019-02-26T06:13:18.712Z,0.73
2019-02-26T06:15:51.273Z,0.82
2019-02-26T06:18:21.001Z,0.75
2019-02-26T06:20:51.719Z,0.78
2019-02-26T06:23:23.148Z,0.87
2019-02-26T06:25:55.998Z,0.82
2019-02-26T06:28:25.727Z,0.67
2019-02-26T06:30:55.385Z,0.74
2019-02-26T06:33:25.064Z,0.78
2019-02-26T06:35:55.319Z,0.79
2019-02-26T06:38:28.062Z,0.80
2019-02-26T06:40:57.412Z,0.77
2019-02-26T06:43:27.108Z,0.85
2019-02-26T06:45:56.826Z,0.75
2019-02-26T06:48:29.195Z,0.85
2019-02-26T06:50:59.866Z,0.98
2019-02-26T06:53:29.277Z,1.12
2019-02-26T06:56:00.771Z,1.17
2019-02-26T06:58:30.419Z,1.26
2019-02-26T07:01:00.153Z,1.29
2019-02-26T07:03:29.848Z,1.22
2019-02-26T07:06:01.715Z,1.26
2019-02-26T07:08:31.246Z,1.42
2019-02-26T07:11:00.955Z,1.54
2019-02-26T07:13:30.688Z,1.73
2019-02-26T07:16:04.605Z,1.77
2019-02-26T07:18:31.952Z,2.04
2019-02-26T07:21:01.625Z,2.12
2019-02-26T07:23:35.194Z,2.22
2019-02-26T07:26:04.711Z,2.38
2019-02-26T07:28:34.359Z,2.53
2019-02-26T07:31:05.512Z,2.70
2019-02-26T07:33:37.059Z,3.02
2019-02-26T07:36:07.148Z,3.11
2019-02-26T07:38:41.324Z,3.22
2019-02-26T07:41:08.438Z,3.32
2019-02-26T07:43:41.094Z,3.40
2019-02-26T07:46:12.150Z,3.47
2019-02-26T07:48:41.334Z,3.59
2019-02-26T07:51:11.085Z,3.66
2019-02-26T07:53:44.404Z,3.76
2019-02-26T07:56:12.252Z,3.89
2019-02-26T07:58:43.126Z,4.00
2019-02-26T08:01:13.014Z,4.10
2019-02-26T08:03:43.900Z,4.33
2019-02-26T08:06:14.255Z,4.43
2019-02-26T08:08:44.934Z,4.56
2019-02-26T08:11:15.573Z,4.66
2019-02-26T08:13:45.290Z,4.69
2019-02-26T08:16:15.008Z,4.78
2019-02-26T08:18:44.655Z,4.87
2019-02-26T08:21:14.327Z,5.14
2019-02-26T08:23:46.025Z,5.43
2019-02-26T08:26:17.294Z,5.40
2019-02-26T08:28:48.229Z,5.48
2019-02-26T08:31:20.523Z,5.55
2019-02-26T08:33:51.692Z,5.72
2019-02-26T08:36:21.137Z,5.72
2019-02-26T08:38:52.059Z,5.85
2019-02-26T08:41:21.870Z,5.88
2019-02-26T08:43:53.970Z,5.99
2019-02-26T08:46:23.096Z,6.12
2019-02-26T08:48:52.840Z,6.34
2019-02-26T08:51:22.568Z,6.47
2019-02-26T08:53:54.691Z,6.45
2019-02-26T08:56:26.213Z,6.45
2019-02-26T08:58:55.286Z,6.58
2019-02-26T09:01:24.981Z,6.67
2019-02-26T09:03:55.932Z,6.74
2019-02-26T09:06:26.136Z,6.84
2019-02-26T09:08:57.939Z,7.02
2019-02-26T09:11:28.795Z,7.35
2019-02-26T09:13:59.398Z,7.38
2019-02-26T09:16:30.426Z,7.56
2019-02-26T09:19:01.168Z,7.54
2019-02-26T09:21:30.844Z,7.54
2019-02-26T09:24:04.208Z,7.70
2019-02-26T09:26:31.994Z,7.72
2019-02-26T09:29:01.807Z,7.88
2019-02-26T09:31:31.583Z,7.94
2019-02-26T09:34:01.272Z,7.89
2019-02-26T09:36:31.099Z,8.05
2019-02-26T09:39:00.781Z,8.22
2019-02-26T09:41:30.706Z,8.27
2019-02-26T09:44:03.844Z,8.30
2019-02-26T09:46:35.878Z,8.27
2019-02-26T09:49:05.108Z,8.29
2019-02-26T09:51:35.317Z,8.33
2019-02-26T09:54:06.120Z,8.42
2019-02-26T09:56:35.889Z,8.49
2019-02-26T09:59:07.144Z,8.59
2019-02-26T10:01:37.844Z,8.72
2019-02-26T10:04:08.455Z,8.77
2019-02-26T10:06:40.541Z,8.89
2019-02-26T10:09:12.780Z,9.05
2019-02-26T10:11:42.435Z,9.12
2019-02-26T10:14:12.697Z,9.03
2019-02-26T10:16:44.556Z,9.11
2019-02-26T10:19:17.097Z,9.15
2019-02-26T10:21:46.420Z,9.25
2019-02-26T10:24:18.398Z,9.36
2019-02-26T10:26:47.500Z,9.54
2019-02-26T10:29:17.153Z,9.54
2019-02-26T10:31:46.858Z,9.58
2019-02-26T10:34:19.141Z,9.71
2019-02-26T10:36:51.281Z,9.64
2019-02-26T10:39:20.818Z,9.77
2019-02-26T10:41:50.669Z,9.89
2019-02-26T10:44:20.545Z,9.85
2019-02-26T10:46:50.264Z,9.93
2019-02-26T10:49:20.044Z,9.98
2019-02-26T10:51:49.669Z,9.95
2019-02-26T10:54:19.410Z,10.08
2019-02-26T10:56:49.037Z,10.12
2019-02-26T10:59:19.675Z,10.19
2019-02-26T11:01:52.036Z,10.34
2019-02-26T11:04:20.922Z,10.39
2019-02-26T11:06:50.621Z,10.43
2019-02-26T11:09:25.403Z,10.48
2019-02-26T11:11:51.613Z,10.57
2019-02-26T11:14:21.394Z,10.67
2019-02-26T11:16:51.087Z,10.81
2019-02-26T11:19:20.898Z,10.78
2019-02-26T11:21:55.560Z,10.85
2019-02-26T11:24:23.477Z,10.98
2019-02-26T11:26:53.396Z,10.96
2019-02-26T11:29:23.140Z,10.96
2019-02-26T11:31:52.835Z,11.07
2019-02-26T11:34:22.530Z,11.00
2019-02-26T11:36:54.165Z,10.93
2019-02-26T11:39:23.782Z,11.00
2019-02-26T11:41:54.571Z,11.13
2019-02-26T11:44:25.770Z,11.14
2019-02-26T11:46:56.596Z,11.20
2019-02-26T11:49:26.384Z,11.17
2019-02-26T11:51:56.058Z,11.36
2019-02-26T11:54:31.219Z,11.42
2019-02-26T11:56:58.120Z,11.35
2019-02-26T11:59:27.837Z,11.67
2019-02-26T12:01:59.142Z,11.66
2019-02-26T12:04:29.017Z,11.82
2019-02-26T12:07:01.044Z,11.89
2019-02-26T12:09:32.948Z,12.01
2019-02-26T12:12:03.469Z,11.90
2019-02-26T12:14:34.746Z,11.79
2019-02-26T12:17:04.381Z,11.92
2019-02-26T12:19:34.947Z,12.08
2019-02-26T12:22:06.073Z,12.25
2019-02-26T12:24:36.251Z,12.17
2019-02-26T12:27:07.312Z,12.26
2019-02-26T12:29:37.271Z,12.20
2019-02-26T12:32:06.993Z,12.35
2019-02-26T12:34:38.487Z,12.37
2019-02-26T12:37:11.160Z,12.42
2019-02-26T12:39:39.520Z,12.64
2019-02-26T12:42:10.561Z,12.56
2019-02-26T12:44:44.825Z,12.66
2019-02-26T12:47:14.684Z,12.76
2019-02-26T12:49:45.138Z,12.65
2019-02-26T12:52:16.086Z,12.66
2019-02-26T12:54:46.365Z,12.77
2019-02-26T12:57:19.081Z,12.96
2019-02-26T12:59:47.587Z,12.95
2019-02-26T13:02:20.793Z,13.01
2019-02-26T13:04:51.150Z,13.03
2019-02-26T13:07:20.266Z,13.00
2019-02-26T13:09:54.687Z,13.16
2019-02-26T13:12:24.158Z,13.07
2019-02-26T13:14:56.482Z,13.10
2019-02-26T13:17:28.191Z,13.14
2019-02-26T13:19:58.954Z,13.17
2019-02-26T13:22:28.152Z,13.09
2019-02-26T13:25:00.247Z,13.13
2019-02-26T13:27:30.236Z,13.08
2019-02-26T13:30:00.090Z,13.13
2019-02-26T13:32:32.154Z,13.27
2019-02-26T13:35:07.404Z,13.17
2019-02-26T13:37:36.592Z,13.19
2019-02-26T13:40:13.410Z,13.26
2019-02-26T13:42:49.907Z,13.23
2019-02-26T13:45:17.050Z,13.22
2019-02-26T13:47:46.994Z,13.18
2019-02-26T13:50:27.533Z,13.23
2019-02-26T13:52:57.346Z,13.34
2019-02-26T13:55:27.128Z,13.39
2019-02-26T13:57:56.837Z,13.39
2019-02-26T14:00:27.164Z,13.42
2019-02-26T14:02:56.889Z,13.44
2019-02-26T14:05:26.545Z,13.51
2019-02-26T14:07:56.301Z,13.42
2019-02-26T14:10:26.698Z,13.36
2019-02-26T14:12:56.650Z,13.35
2019-02-26T14:15:27.543Z,13.41
2019-02-26T14:17:57.450Z,13.57
2019-02-26T14:20:27.248Z,13.74
2019-02-26T14:22:56.942Z,13.53
2019-02-26T14:25:26.719Z,13.59
2019-02-26T14:27:56.496Z,13.61
2019-02-26T14:30:26.276Z,13.55
2019-02-26T14:32:56.104Z,13.58
2019-02-26T14:35:25.930Z,13.62
2019-02-26T14:37:57.166Z,13.58
2019-02-26T14:40:26.806Z,13.47
2019-02-26T14:42:56.535Z,13.52
2019-02-26T14:45:27.331Z,13.44
2019-02-26T14:47:57.025Z,13.37
2019-02-26T14:50:27.068Z,13.38
2019-02-26T14:52:56.783Z,13.31
2019-02-26T14:55:26.493Z,13.30
2019-02-26T14:57:56.177Z,13.30
2019-02-26T15:00:29.799Z,13.25
2019-02-26T15:02:59.460Z,13.28
2019-02-26T15:05:29.107Z,13.17
2019-02-26T15:07:58.769Z,13.10
2019-02-26T15:10:28.564Z,13.00
2019-02-26T15:12:58.399Z,13.00
2019-02-26T15:15:28.110Z,12.93
2019-02-26T15:17:57.782Z,12.76
2019-02-26T15:20:30.156Z,12.76
2019-02-26T15:22:59.874Z,12.67
2019-02-26T15:25:31.432Z,12.62
2019-02-26T15:28:05.629Z,12.53
2019-02-26T15:30:35.448Z,12.57
2019-02-26T15:33:11.195Z,12.48
2019-02-26T15:35:36.584Z,12.49
2019-02-26T15:38:06.306Z,12.43
2019-02-26T15:40:35.942Z,12.38
2019-02-26T15:43:05.701Z,12.31
2019-02-26T15:45:35.510Z,12.21
2019-02-26T15:48:05.288Z,12.16
2019-02-26T15:50:34.998Z,12.05
2019-02-26T15:53:04.661Z,12.01
2019-02-26T15:55:34.477Z,12.03
2019-02-26T15:58:06.700Z,11.96
2019-02-26T16:00:37.677Z,11.91
2019-02-26T16:03:07.287Z,11.91
2019-02-26T16:05:40.525Z,11.94
2019-02-26T16:08:10.406Z,11.79
2019-02-26T16:10:40.320Z,11.75
2019-02-26T16:13:10.055Z,11.61
2019-02-26T16:15:40.150Z,11.56
2019-02-26T16:18:10.008Z,11.44
2019-02-26T16:20:41.353Z,11.36
2019-02-26T16:23:11.220Z,11.25
2019-02-26T16:25:40.863Z,11.07
2019-02-26T16:28:27.327Z,10.94
2019-02-26T16:30:59.879Z,10.88
2019-02-26T16:33:29.713Z,10.71
2019-02-26T16:35:59.375Z,10.61
2019-02-26T16:38:29.071Z,10.58
2019-02-26T16:40:58.733Z,10.51
2019-02-26T16:43:28.385Z,10.48
2019-02-26T16:46:00.165Z,10.39
2019-02-26T16:48:29.855Z,10.34
2019-02-26T16:50:59.800Z,10.19
2019-02-26T16:53:33.485Z,10.08
2019-02-26T16:56:01.317Z,9.97
2019-02-26T16:58:35.207Z,9.88
2019-02-26T17:01:05.828Z,9.76
2019-02-26T17:03:35.537Z,9.70
2019-02-26T17:06:05.495Z,9.65
2019-02-26T17:08:35.527Z,9.65
2019-02-26T17:11:05.327Z,9.66
2019-02-26T17:13:35.333Z,9.62
2019-02-26T17:16:05.000Z,9.49
2019-02-26T17:18:34.899Z,9.37
2019-02-26T17:21:04.769Z,9.29
2019-02-26T17:23:34.376Z,9.15
2019-02-26T17:26:04.310Z,9.23
2019-02-26T17:28:33.947Z,9.26
2019-02-26T17:31:03.660Z,9.17
2019-02-26T17:33:33.302Z,9.03
2019-02-26T17:36:02.994Z,8.87
2019-02-26T17:38:32.643Z,8.72
2019-02-26T17:41:04.485Z,8.59
2019-02-26T17:43:34.176Z,8.40
2019-02-26T17:46:04.040Z,8.26
2019-02-26T17:48:43.100Z,8.16
2019-02-26T17:51:05.059Z,8.09
2019-02-26T17:53:34.737Z,8.00
2019-02-26T17:56:05.310Z,7.87
2019-02-26T17:58:35.010Z,7.72
2019-02-26T18:01:05.325Z,7.59
2019-02-26T18:03:35.201Z,7.46
2019-02-26T18:06:04.842Z,7.34
2019-02-26T18:08:34.608Z,7.27
2019-02-26T18:11:04.689Z,7.15
2019-02-26T18:13:37.416Z,7.07
2019-02-26T18:16:09.881Z,6.94
2019-02-26T18:18:38.815Z,6.92
2019-02-26T18:21:08.480Z,6.83
2019-02-26T18:23:38.341Z,6.77
2019-02-26T18:26:09.427Z,6.70
2019-02-26T18:28:39.028Z,6.57
2019-02-26T18:31:08.763Z,6.43
2019-02-26T18:33:38.592Z,6.34
2019-02-26T18:36:08.271Z,6.22
2019-02-26T18:38:37.932Z,6.14
2019-02-26T18:41:07.751Z,6.08
2019-02-26T18:43:37.394Z,5.99
2019-02-26T18:46:08.623Z,5.82
2019-02-26T18:48:38.478Z,5.56
2019-02-26T18:51:08.205Z,5.56
2019-02-26T18:53:38.062Z,5.52
2019-02-26T18:56:08.891Z,5.45
2019-02-26T18:58:38.564Z,5.45
2019-02-26T19:01:08.189Z,5.45
2019-02-26T19:03:39.330Z,5.49
2019-02-26T19:06:10.520Z,5.40
2019-02-26T19:08:41.549Z,5.38
2019-02-26T19:11:16.515Z,5.35
2019-02-26T19:13:42.941Z,5.19
2019-02-26T19:16:12.793Z,5.01
2019-02-26T19:18:42.585Z,4.97
2019-02-26T19:21:12.295Z,4.94
2019-02-26T19:23:42.210Z,4.81
2019-02-26T19:26:13.724Z,4.81
2019-02-26T19:28:43.386Z,4.77
2019-02-26T19:31:13.076Z,4.72
2019-02-26T19:33:42.743Z,4.69
2019-02-26T19:36:12.966Z,4.65
2019-02-26T19:38:43.302Z,4.66
2019-02-26T19:41:15.641Z,4.60
2019-02-26T19:43:45.284Z,4.53
2019-02-26T19:46:18.065Z,4.46
2019-02-26T19:48:47.713Z,4.39
2019-02-26T19:51:22.945Z,4.33
2019-02-26T19:53:52.881Z,4.32
2019-02-26T19:56:23.783Z,4.28
2019-02-26T19:58:55.157Z,4.31
2019-02-26T20:01:25.863Z,4.44
2019-02-26T20:03:56.218Z,4.36
2019-02-26T20:06:26.871Z,4.26
2019-02-26T20:24:37.255Z,3.65
2019-02-26T20:27:07.512Z,3.60
2019-02-26T20:29:37.250Z,3.56
2019-02-26T20:32:06.965Z,3.53
2019-02-26T20:34:36.626Z,3.47
2019-02-26T20:37:06.278Z,3.38
2019-02-26T20:39:35.918Z,3.31
2019-02-26T20:42:05.565Z,3.27
2019-02-26T20:44:35.393Z,3.32
2019-02-26T20:47:05.034Z,3.28
2019-02-26T20:49:34.706Z,3.22
2019-02-26T20:52:04.350Z,3.18
2019-02-26T20:54:34.036Z,3.22
2019-02-26T20:57:04.444Z,3.19
2019-02-26T20:59:34.133Z,3.24
2019-02-26T21:02:03.857Z,3.15
2019-02-26T21:04:33.549Z,3.10
2019-02-26T21:07:03.274Z,3.00
2019-02-26T21:09:33.010Z,2.91
2019-02-26T21:12:02.778Z,2.83
2019-02-26T21:14:32.443Z,2.89
2019-02-26T21:17:02.179Z,2.86
2019-02-26T21:19:35.551Z,2.89
2019-02-26T21:22:03.337Z,2.91
2019-02-26T21:24:34.615Z,2.88
2019-02-26T21:27:04.506Z,2.84
2019-02-26T21:29:34.216Z,2.83
2019-02-26T21:32:03.942Z,2.82
2019-02-26T21:34:33.658Z,2.83
2019-02-26T21:37:03.361Z,2.80
2019-02-26T21:39:33.077Z,2.82
2019-02-26T21:42:02.852Z,2.80
2019-02-26T21:44:32.606Z,2.76
2019-02-26T21:47:02.924Z,2.70
2019-02-26T21:49:32.653Z,2.68
2019-02-26T21:52:04.150Z,2.63
2019-02-26T21:54:34.138Z,2.57
2019-02-26T21:57:03.868Z,2.51
2019-02-26T21:59:33.526Z,2.43
2019-02-26T22:02:03.226Z,2.45
2019-02-26T22:04:32.895Z,2.41
2019-02-26T22:07:02.487Z,2.36
2019-02-26T22:09:32.105Z,2.32
2019-02-26T22:12:01.734Z,2.42
2019-02-26T22:14:31.352Z,2.42
2019-02-26T22:17:00.990Z,2.41
2019-02-26T22:19:30.608Z,2.35
2019-02-26T22:22:00.239Z,2.29
2019-02-26T22:24:29.856Z,2.29
2019-02-26T22:27:00.250Z,2.24
2019-02-26T22:29:30.045Z,2.27
2019-02-26T22:32:02.419Z,2.17
2019-02-26T22:34:31.090Z,2.15
2019-02-26T22:37:00.739Z,2.15
2019-02-26T22:39:30.334Z,2.14
2019-02-26T22:41:59.985Z,2.17
2019-02-26T22:44:29.612Z,2.13
2019-02-26T22:46:59.346Z,2.14
2019-02-26T22:49:28.942Z,2.12
2019-02-26T22:51:59.119Z,2.08
2019-02-26T22:54:28.770Z,2.01
2019-02-26T22:56:58.391Z,2.01
2019-02-26T22:59:28.038Z,1.97
2019-02-26T23:01:58.695Z,1.95
2019-02-26T23:04:28.337Z,2.04
2019-02-26T23:06:57.963Z,1.90
2019-02-26T23:09:28.713Z,1.92
2019-02-26T23:12:04.665Z,1.84
2019-02-26T23:14:31.636Z,1.83
2019-02-26T23:17:01.829Z,1.81
2019-02-26T23:19:31.481Z,1.82
2019-02-26T23:22:08.357Z,1.80
2019-02-26T23:24:38.036Z,1.64
2019-02-26T23:27:07.725Z,1.54
2019-02-26T23:29:40.347Z,1.57
2019-02-26T23:32:09.991Z,1.59
2019-02-26T23:34:39.645Z,1.56
2019-02-26T23:37:15.280Z,1.63
2019-02-26T23:39:45.190Z,1.65
2019-02-26T23:42:14.898Z,1.88
2019-02-26T23:44:44.542Z,1.83
2019-02-26T23:47:14.154Z,1.69
2019-02-26T23:49:44.845Z,1.61
2019-02-26T23:52:15.157Z,1.50
2019-02-26T23:54:44.804Z,1.45
2019-02-26T23:57:14.495Z,1.34
2019-02-26T23:59:44.152Z,1.33
